createdAt,value
2018-12-05T00:01:46.674Z,10.33
2018-12-05T00:04:15.878Z,9.93
2018-12-05T00:06:44.904Z,10.80
2018-12-05T00:09:13.926Z,9.83
2018-12-05T00:11:42.988Z,9.50
2018-12-05T00:14:12.190Z,10.87
2018-12-05T00:16:42.012Z,9.47
2018-12-05T00:19:11.098Z,10.23
2018-12-05T00:21:40.184Z,9.60
2018-12-05T00:24:15.746Z,8.73
2018-12-05T00:26:44.836Z,9.43
2018-12-05T00:29:13.873Z,8.67
2018-12-05T00:31:42.933Z,9.23
2018-12-05T00:34:12.029Z,8.30
2018-12-05T00:36:41.067Z,8.53
2018-12-05T00:39:10.172Z,8.50
2018-12-05T00:41:39.435Z,8.40
2018-12-05T00:44:08.519Z,8.53
2018-12-05T00:46:37.529Z,8.57
2018-12-05T00:49:06.591Z,8.10
2018-12-05T00:51:35.685Z,7.53
2018-12-05T00:54:04.920Z,7.90
2018-12-05T00:56:33.997Z,8.17
2018-12-05T00:59:03.059Z,7.70
2018-12-05T01:01:32.345Z,8.13
2018-12-05T01:04:01.578Z,8.27
2018-12-05T01:06:30.637Z,6.87
2018-12-05T01:08:59.899Z,7.30
2018-12-05T01:11:28.869Z,7.00
2018-12-05T01:13:57.903Z,7.63
2018-12-05T01:16:26.958Z,6.77
2018-12-05T01:18:55.944Z,7.97
2018-12-05T01:21:25.184Z,6.40
2018-12-05T01:23:54.177Z,6.80
2018-12-05T01:26:23.213Z,6.87
2018-12-05T01:28:52.292Z,6.90
2018-12-05T01:31:21.308Z,6.97
2018-12-05T01:33:50.297Z,7.90
2018-12-05T01:36:19.335Z,6.47
2018-12-05T01:38:48.380Z,6.93
2018-12-05T01:41:17.706Z,7.03
2018-12-05T01:43:47.775Z,6.67
2018-12-05T01:46:16.919Z,6.67
2018-12-05T01:48:46.034Z,7.10
2018-12-05T01:51:15.214Z,6.47
2018-12-05T01:53:44.270Z,6.73
2018-12-05T01:56:14.370Z,6.23
2018-12-05T01:58:43.427Z,5.90
2018-12-05T02:01:12.463Z,6.90
2018-12-05T02:03:41.579Z,6.90
2018-12-05T02:06:10.692Z,5.63
2018-12-05T02:08:39.762Z,6.27
2018-12-05T02:11:08.860Z,6.00
2018-12-05T02:13:37.973Z,7.00
2018-12-05T02:16:06.979Z,5.60
2018-12-05T02:18:36.145Z,7.00
2018-12-05T02:21:05.331Z,6.80
2018-12-05T02:23:34.365Z,6.00
2018-12-05T02:26:03.519Z,6.70
2018-12-05T02:28:32.617Z,5.73
2018-12-05T02:31:01.798Z,6.20
2018-12-05T02:33:30.869Z,6.77
2018-12-05T02:35:59.883Z,6.50
2018-12-05T02:38:28.934Z,6.47
2018-12-05T02:40:57.943Z,7.10
2018-12-05T02:43:27.090Z,6.30
2018-12-05T02:45:56.204Z,6.23
2018-12-05T02:48:25.421Z,6.37
2018-12-05T02:50:54.424Z,6.63
2018-12-05T02:53:23.442Z,6.37
2018-12-05T02:55:52.491Z,6.17
2018-12-05T02:58:21.718Z,7.20
2018-12-05T03:00:51.014Z,6.57
2018-12-05T03:03:20.039Z,6.60
2018-12-05T03:05:49.042Z,6.67
2018-12-05T03:08:18.084Z,6.60
2018-12-05T03:10:47.121Z,6.10
2018-12-05T03:13:16.158Z,7.50
2018-12-05T03:15:45.174Z,6.23
2018-12-05T03:18:14.203Z,6.93
2018-12-05T03:20:43.406Z,7.07
2018-12-05T03:23:12.425Z,7.43
2018-12-05T03:25:41.523Z,6.33
2018-12-05T03:28:10.575Z,6.90
2018-12-05T03:30:39.824Z,7.13
2018-12-05T03:33:09.160Z,6.63
2018-12-05T03:35:39.137Z,6.73
2018-12-05T03:38:08.601Z,6.30
2018-12-05T03:40:37.832Z,6.77
2018-12-05T03:43:07.072Z,6.70
2018-12-05T03:45:36.096Z,6.93
2018-12-05T03:48:05.165Z,6.87
2018-12-05T03:50:34.552Z,7.37
2018-12-05T03:53:03.657Z,6.93
2018-12-05T03:55:32.773Z,7.43
2018-12-05T03:58:02.212Z,7.57
2018-12-05T04:00:31.239Z,6.63
2018-12-05T04:03:00.441Z,7.10
2018-12-05T04:05:29.482Z,7.60
2018-12-05T04:07:58.721Z,7.60
2018-12-05T04:10:27.751Z,8.03
2018-12-05T04:12:57.000Z,6.73
2018-12-05T04:15:26.067Z,7.00
2018-12-05T04:17:55.067Z,7.83
2018-12-05T04:20:24.126Z,7.37
2018-12-05T04:22:54.374Z,7.77
2018-12-05T04:25:23.388Z,7.30
2018-12-05T04:27:52.385Z,7.27
2018-12-05T04:30:21.941Z,7.03
2018-12-05T04:32:53.010Z,7.43
2018-12-05T04:35:22.022Z,7.70
2018-12-05T04:37:57.671Z,7.30
2018-12-05T04:40:26.714Z,8.77
2018-12-05T04:42:55.733Z,8.60
2018-12-05T04:45:24.745Z,9.37
2018-12-05T04:47:53.799Z,10.10
2018-12-05T04:50:22.984Z,9.87
2018-12-05T04:52:52.017Z,9.73
2018-12-05T04:55:21.043Z,9.43
2018-12-05T04:57:50.054Z,9.10
2018-12-05T05:00:19.102Z,7.90
2018-12-05T05:02:48.207Z,9.33
2018-12-05T05:05:17.314Z,9.63
2018-12-05T05:07:46.446Z,9.00
2018-12-05T05:10:16.615Z,10.33
2018-12-05T05:12:45.823Z,9.17
2018-12-05T05:15:14.889Z,10.73
2018-12-05T05:17:43.914Z,10.63
2018-12-05T05:20:13.657Z,9.90
2018-12-05T05:22:42.696Z,9.23
2018-12-05T05:25:11.897Z,9.30
2018-12-05T05:27:45.856Z,9.53
2018-12-05T05:30:11.939Z,8.80
2018-12-05T05:32:40.999Z,9.63
2018-12-05T05:35:10.017Z,9.70
2018-12-05T05:37:39.357Z,9.93
2018-12-05T05:40:08.534Z,9.73
2018-12-05T05:42:37.591Z,10.40
2018-12-05T05:45:06.627Z,10.73
2018-12-05T05:47:35.679Z,11.30
2018-12-05T05:50:05.065Z,11.10
2018-12-05T05:52:34.175Z,10.47
2018-12-05T05:55:03.229Z,10.93
2018-12-05T05:57:32.233Z,10.60
2018-12-05T06:00:01.293Z,10.90
2018-12-05T06:02:37.279Z,10.50
2018-12-05T06:05:06.765Z,10.40
2018-12-05T06:07:35.786Z,10.80
2018-12-05T06:10:06.109Z,12.17
2018-12-05T06:12:36.343Z,11.47
2018-12-05T06:15:07.352Z,12.27
2018-12-05T06:17:36.484Z,11.53
2018-12-05T06:20:05.831Z,11.27
2018-12-05T06:22:34.905Z,11.07
2018-12-05T06:25:04.588Z,11.50
2018-12-05T06:27:33.640Z,10.03
2018-12-05T06:30:03.043Z,10.30
2018-12-05T06:32:32.287Z,8.60
2018-12-05T06:35:01.381Z,10.20
2018-12-05T06:37:30.737Z,8.73
2018-12-05T06:39:59.773Z,9.77
2018-12-05T06:42:28.795Z,10.93
2018-12-05T06:44:57.932Z,11.97
2018-12-05T06:47:27.925Z,11.17
2018-12-05T06:49:58.129Z,11.87
2018-12-05T06:52:27.158Z,9.83
2018-12-05T06:54:56.203Z,10.07
2018-12-05T06:57:25.283Z,9.93
2018-12-05T06:59:54.301Z,10.27
2018-12-05T07:02:23.342Z,10.80
2018-12-05T07:04:52.423Z,10.33
2018-12-05T07:07:21.457Z,11.27
2018-12-05T07:09:50.472Z,10.43
2018-12-05T07:12:19.497Z,9.80
2018-12-05T07:14:48.507Z,9.63
2018-12-05T07:17:17.567Z,10.40
2018-12-05T07:19:47.058Z,9.33
2018-12-05T07:22:16.050Z,11.33
2018-12-05T07:24:45.092Z,13.53
2018-12-05T07:27:14.462Z,13.20
2018-12-05T07:29:43.498Z,14.73
2018-12-05T07:32:12.750Z,15.37
2018-12-05T07:34:41.758Z,13.97
2018-12-05T07:37:11.013Z,13.40
2018-12-05T07:39:40.027Z,14.23
2018-12-05T07:42:09.084Z,13.80
2018-12-05T07:44:41.075Z,13.80
2018-12-05T07:47:10.125Z,13.07
2018-12-05T07:49:39.168Z,11.13
2018-12-05T07:52:08.206Z,11.30
2018-12-05T07:54:37.238Z,10.10
2018-12-05T07:57:06.382Z,9.40
2018-12-05T07:59:35.655Z,11.43
2018-12-05T08:02:04.826Z,10.87
2018-12-05T08:04:33.993Z,10.90
2018-12-05T08:07:03.020Z,10.60
2018-12-05T08:09:32.025Z,10.73
2018-12-05T08:12:01.137Z,11.43
2018-12-05T08:14:30.314Z,10.77
2018-12-05T08:16:59.480Z,10.93
2018-12-05T08:19:28.487Z,11.30
2018-12-05T08:21:57.521Z,12.80
2018-12-05T08:24:26.610Z,12.53
2018-12-05T08:26:55.829Z,13.10
2018-12-05T08:29:25.027Z,11.87
2018-12-05T08:31:54.048Z,11.33
2018-12-05T08:34:23.064Z,11.37
2018-12-05T08:36:52.104Z,12.13
2018-12-05T08:39:21.115Z,11.07
2018-12-05T08:41:50.187Z,10.67
2018-12-05T08:44:19.291Z,9.60
2018-12-05T08:46:48.340Z,10.80
2018-12-05T08:49:17.520Z,11.07
2018-12-05T08:51:46.575Z,10.10
2018-12-05T08:54:21.074Z,9.47
2018-12-05T08:56:46.826Z,10.33
2018-12-05T08:59:15.915Z,10.17
2018-12-05T09:01:44.962Z,9.43
2018-12-05T09:04:14.036Z,8.60
2018-12-05T09:06:43.064Z,8.13
2018-12-05T09:09:12.152Z,9.03
2018-12-05T09:11:41.444Z,8.67
2018-12-05T09:14:10.557Z,9.07
2018-12-05T09:16:39.679Z,9.07
2018-12-05T09:19:08.838Z,8.20
2018-12-05T09:21:37.905Z,8.30
2018-12-05T09:24:06.924Z,7.93
2018-12-05T09:26:36.079Z,9.47
2018-12-05T09:29:05.254Z,8.37
2018-12-05T09:31:35.280Z,8.83
2018-12-05T09:34:10.953Z,8.33
2018-12-05T09:36:39.975Z,9.20
2018-12-05T09:39:10.392Z,9.00
2018-12-05T09:41:39.388Z,8.30
2018-12-05T09:44:08.398Z,9.70
2018-12-05T09:46:38.516Z,10.20
2018-12-05T09:49:07.560Z,9.13
2018-12-05T09:51:36.630Z,9.90
2018-12-05T09:54:05.878Z,9.70
2018-12-05T09:56:34.918Z,9.90
2018-12-05T09:59:04.110Z,9.83
2018-12-05T10:01:33.312Z,10.37
2018-12-05T10:04:02.360Z,9.27
2018-12-05T10:06:31.524Z,9.60
2018-12-05T10:09:00.597Z,9.70
2018-12-05T10:11:29.778Z,8.60
2018-12-05T10:13:58.786Z,9.30
2018-12-05T10:16:27.855Z,9.67
2018-12-05T10:18:57.075Z,8.80
2018-12-05T10:21:26.118Z,8.93
2018-12-05T10:23:55.231Z,8.10
2018-12-05T10:26:24.275Z,8.83
2018-12-05T10:28:53.373Z,8.67
2018-12-05T10:31:22.391Z,9.27
2018-12-05T10:33:52.848Z,8.43
2018-12-05T10:36:21.869Z,8.87
2018-12-05T10:38:51.304Z,8.00
2018-12-05T10:41:21.532Z,8.93
2018-12-05T10:43:50.629Z,8.63
2018-12-05T10:46:19.935Z,7.90
2018-12-05T10:48:48.931Z,8.17
2018-12-05T10:51:18.520Z,8.47
2018-12-05T10:53:47.580Z,8.83
2018-12-05T10:56:17.503Z,7.87
2018-12-05T10:58:46.520Z,9.57
2018-12-05T11:01:21.258Z,10.10
2018-12-05T11:03:50.315Z,9.67
2018-12-05T11:06:24.853Z,9.70
2018-12-05T11:08:59.192Z,9.63
2018-12-05T11:11:33.545Z,8.80
2018-12-05T11:14:08.034Z,10.47
2018-12-05T11:16:41.326Z,10.10
2018-12-05T11:19:15.674Z,8.73
2018-12-05T11:21:50.103Z,9.17
2018-12-05T11:24:24.473Z,8.83
2018-12-05T11:26:53.748Z,9.23
2018-12-05T11:29:22.810Z,8.83
2018-12-05T11:31:51.980Z,9.80
2018-12-05T11:34:21.318Z,9.90
2018-12-05T11:36:51.738Z,9.23
2018-12-05T11:39:21.240Z,10.47
2018-12-05T11:41:50.420Z,10.37
2018-12-05T11:44:19.426Z,11.20
2018-12-05T11:46:55.318Z,10.33
2018-12-05T11:49:24.570Z,11.03
2018-12-05T11:51:53.598Z,10.87
2018-12-05T11:54:22.670Z,10.80
2018-12-05T11:56:52.039Z,10.77
2018-12-05T11:59:21.055Z,11.07
2018-12-05T12:01:50.109Z,11.07
2018-12-05T12:04:19.380Z,10.30
2018-12-05T12:06:48.640Z,10.97
2018-12-05T12:09:17.760Z,10.10
2018-12-05T12:11:46.868Z,10.37
2018-12-05T12:14:15.922Z,11.17
2018-12-05T12:16:45.057Z,10.40
2018-12-05T12:19:14.146Z,10.83
2018-12-05T12:21:44.764Z,10.73
2018-12-05T12:24:13.998Z,10.70
2018-12-05T12:26:43.342Z,11.13
2018-12-05T12:29:12.721Z,10.93
2018-12-05T12:31:41.902Z,10.07
2018-12-05T12:34:10.967Z,11.17
2018-12-05T12:36:39.993Z,10.40
2018-12-05T12:39:09.058Z,11.10
2018-12-05T12:41:38.227Z,11.57
2018-12-05T12:44:08.281Z,11.57
2018-12-05T12:46:37.334Z,11.83
2018-12-05T12:49:06.471Z,10.83
2018-12-05T12:51:35.494Z,12.10
2018-12-05T12:54:04.591Z,10.90
2018-12-05T12:56:33.818Z,11.37
2018-12-05T12:59:03.017Z,12.03
2018-12-05T13:01:32.130Z,12.70
2018-12-05T13:04:01.227Z,11.90
2018-12-05T13:06:30.279Z,12.50
2018-12-05T13:08:59.335Z,12.23
2018-12-05T13:11:28.340Z,12.37
2018-12-05T13:13:57.715Z,12.40
2018-12-05T13:16:26.791Z,12.20
2018-12-05T13:18:55.883Z,12.63
2018-12-05T13:21:25.262Z,12.93
2018-12-05T13:23:54.299Z,12.80
2018-12-05T13:26:23.345Z,14.03
2018-12-05T13:28:52.527Z,13.80
2018-12-05T13:31:22.777Z,13.60
2018-12-05T13:33:51.847Z,13.40
2018-12-05T13:36:21.176Z,12.93
2018-12-05T13:38:52.226Z,13.60
2018-12-05T13:41:21.456Z,14.63
2018-12-05T13:43:50.759Z,12.67
2018-12-05T13:46:19.852Z,14.50
2018-12-05T13:48:49.026Z,14.53
2018-12-05T13:51:18.050Z,14.87
2018-12-05T13:53:47.103Z,14.70
2018-12-05T13:56:16.204Z,14.17
2018-12-05T13:58:45.252Z,14.37
2018-12-05T14:01:14.295Z,15.33
2018-12-05T14:03:43.390Z,15.53
2018-12-05T14:06:12.408Z,15.70
2018-12-05T14:08:41.479Z,15.53
2018-12-05T14:11:10.867Z,18.27
2018-12-05T14:13:40.242Z,16.33
2018-12-05T14:16:09.486Z,17.37
2018-12-05T14:18:38.501Z,16.63
2018-12-05T14:21:07.587Z,17.47
2018-12-05T14:23:36.723Z,17.17
2018-12-05T14:26:05.934Z,17.43
2018-12-05T14:28:34.946Z,17.20
2018-12-05T14:31:09.912Z,18.57
2018-12-05T14:33:40.399Z,18.27
2018-12-05T14:36:09.462Z,18.50
2018-12-05T14:38:38.514Z,17.67
2018-12-05T14:41:07.610Z,17.90
2018-12-05T14:43:36.724Z,18.83
2018-12-05T14:46:07.401Z,17.97
2018-12-05T14:48:36.637Z,19.30
2018-12-05T14:51:05.838Z,19.97
2018-12-05T14:53:34.907Z,19.33
2018-12-05T14:56:04.075Z,20.43
2018-12-05T14:58:33.247Z,20.63
2018-12-05T15:01:03.615Z,21.90
2018-12-05T15:03:32.822Z,21.00
2018-12-05T15:06:02.006Z,21.20
2018-12-05T15:08:31.116Z,22.70
2018-12-05T15:11:00.213Z,22.87
2018-12-05T15:13:29.486Z,22.37
2018-12-05T15:15:58.847Z,23.70
2018-12-05T15:18:27.860Z,24.33
2018-12-05T15:20:56.893Z,25.50
2018-12-05T15:23:25.968Z,26.43
2018-12-05T15:25:55.435Z,25.57
2018-12-05T15:28:24.633Z,26.40
2018-12-05T15:30:53.730Z,26.90
2018-12-05T15:33:22.897Z,26.80
2018-12-05T15:35:52.437Z,26.43
2018-12-05T15:38:21.642Z,25.97
2018-12-05T15:40:50.930Z,26.17
2018-12-05T15:43:20.272Z,25.63
2018-12-05T15:45:49.325Z,23.00
2018-12-05T15:48:18.396Z,23.33
2018-12-05T15:50:47.475Z,23.03
2018-12-05T15:53:16.534Z,22.40
2018-12-05T15:55:45.714Z,23.17
2018-12-05T15:58:14.730Z,22.30
2018-12-05T16:00:43.887Z,22.27
2018-12-05T16:03:13.088Z,22.40
2018-12-05T16:05:42.197Z,23.10
2018-12-05T16:08:11.288Z,23.13
2018-12-05T16:10:40.359Z,21.87
2018-12-05T16:13:09.379Z,24.93
2018-12-05T16:15:38.450Z,23.10
2018-12-05T16:18:07.487Z,23.50
2018-12-05T16:20:36.556Z,22.17
2018-12-05T16:23:05.806Z,23.97
2018-12-05T16:25:35.156Z,23.60
2018-12-05T16:28:04.419Z,23.60
2018-12-05T16:30:33.488Z,23.83
2018-12-05T16:33:02.613Z,23.83
2018-12-05T16:35:31.754Z,23.63
2018-12-05T16:38:00.953Z,23.70
2018-12-05T16:40:30.755Z,24.37
2018-12-05T16:43:00.427Z,24.07
2018-12-05T16:45:29.490Z,25.17
2018-12-05T16:47:58.549Z,26.77
2018-12-05T16:50:27.603Z,27.23
2018-12-05T16:52:56.689Z,28.37
2018-12-05T16:55:25.937Z,27.67
2018-12-05T16:57:54.955Z,27.17
2018-12-05T17:00:24.003Z,28.90
2018-12-05T17:02:53.066Z,29.23
2018-12-05T17:05:22.197Z,28.33
2018-12-05T17:07:52.168Z,30.00
2018-12-05T17:10:21.421Z,29.70
2018-12-05T17:12:50.488Z,29.40
2018-12-05T17:15:19.665Z,30.80
2018-12-05T17:17:48.731Z,31.27
2018-12-05T17:20:17.898Z,30.53
2018-12-05T17:22:46.956Z,30.10
2018-12-05T17:25:15.989Z,29.97
2018-12-05T17:27:45.321Z,30.27
2018-12-05T17:30:14.724Z,30.23
2018-12-05T17:32:43.771Z,30.53
2018-12-05T17:35:12.873Z,30.37
2018-12-05T17:37:42.203Z,31.90
2018-12-05T17:40:12.365Z,30.40
2018-12-05T17:42:41.397Z,29.97
2018-12-05T17:45:10.459Z,30.43
2018-12-05T17:47:39.901Z,30.03
2018-12-05T17:50:09.051Z,31.53
2018-12-05T17:52:38.181Z,31.90
2018-12-05T17:57:50.013Z,31.63
2018-12-05T18:00:19.159Z,31.00
2018-12-05T18:02:48.395Z,32.37
2018-12-05T18:05:17.446Z,32.60
2018-12-05T18:07:46.719Z,33.67
2018-12-05T18:10:15.738Z,34.83
2018-12-05T18:12:44.844Z,35.10
2018-12-05T18:15:14.261Z,36.23
2018-12-05T18:17:43.339Z,37.17
2018-12-05T18:20:13.315Z,36.37
2018-12-05T18:22:42.509Z,36.53
2018-12-05T18:25:11.535Z,38.90
2018-12-05T18:27:40.595Z,37.80
2018-12-05T18:30:10.315Z,39.23
2018-12-05T18:32:39.659Z,41.10
2018-12-05T18:35:08.709Z,38.40
2018-12-05T18:37:38.090Z,39.20
2018-12-05T18:40:07.369Z,40.43
2018-12-05T18:42:36.589Z,38.10
2018-12-05T18:45:07.041Z,36.53
2018-12-05T18:47:36.069Z,38.43
2018-12-05T18:50:06.699Z,39.40
2018-12-05T18:52:36.146Z,40.20
2018-12-05T18:55:05.664Z,36.63
2018-12-05T18:57:34.914Z,38.33
2018-12-05T19:00:05.063Z,38.73
2018-12-05T19:02:34.220Z,40.27
2018-12-05T19:05:03.790Z,38.27
2018-12-05T19:07:32.914Z,38.43
2018-12-05T19:10:01.959Z,37.07
2018-12-05T19:12:31.017Z,37.20
2018-12-05T19:15:00.256Z,38.03
2018-12-05T19:17:29.438Z,38.70
2018-12-05T19:19:58.534Z,38.00
2018-12-05T19:22:27.665Z,39.33
2018-12-05T19:24:56.705Z,38.30
2018-12-05T19:27:35.761Z,37.17
2018-12-05T19:30:06.539Z,37.97
2018-12-05T19:32:35.807Z,39.40
2018-12-05T19:35:05.645Z,38.13
2018-12-05T19:37:36.359Z,39.53
2018-12-05T19:40:06.524Z,40.07
2018-12-05T19:42:35.648Z,40.73
2018-12-05T19:45:05.436Z,41.77
2018-12-05T19:47:34.604Z,42.77
2018-12-05T19:50:04.640Z,42.07
2018-12-05T19:52:33.780Z,40.50
2018-12-05T19:55:02.863Z,41.93
2018-12-05T19:57:32.199Z,42.97
2018-12-05T20:00:01.918Z,44.37
2018-12-05T20:02:31.284Z,42.33
2018-12-05T20:05:00.376Z,41.70
2018-12-05T20:07:29.520Z,40.87
2018-12-05T20:09:58.720Z,39.90
2018-12-05T20:12:27.823Z,36.77
2018-12-05T20:14:56.988Z,36.90
2018-12-05T20:17:27.376Z,35.00
2018-12-05T20:19:56.444Z,35.37
2018-12-05T20:22:25.554Z,36.17
2018-12-05T20:24:54.614Z,35.33
2018-12-05T20:27:23.702Z,38.00
2018-12-05T20:29:52.736Z,34.80
2018-12-05T20:32:21.803Z,37.57
2018-12-05T20:34:50.885Z,36.27
2018-12-05T20:37:19.915Z,37.10
2018-12-05T20:39:48.986Z,35.43
2018-12-05T20:42:18.298Z,36.07
2018-12-05T20:44:47.384Z,35.03
2018-12-05T20:47:16.720Z,35.03
2018-12-05T20:49:45.796Z,35.07
2018-12-05T20:52:15.674Z,36.70
2018-12-05T20:54:44.772Z,35.70
2018-12-05T20:57:13.919Z,38.90
2018-12-05T20:59:43.216Z,36.87
2018-12-05T21:02:13.150Z,37.73
2018-12-05T21:04:42.389Z,37.77
2018-12-05T21:07:11.680Z,38.40
2018-12-05T21:09:40.827Z,39.10
2018-12-05T21:12:09.981Z,39.77
2018-12-05T21:14:39.053Z,39.07
2018-12-05T21:17:08.175Z,41.10
2018-12-05T21:19:37.258Z,38.57
2018-12-05T21:22:06.344Z,39.77
2018-12-05T21:24:35.427Z,39.93
2018-12-05T21:27:05.195Z,42.00
2018-12-05T21:29:34.338Z,40.23
2018-12-05T21:32:03.429Z,38.10
2018-12-05T21:34:32.510Z,39.57
2018-12-05T21:37:02.053Z,40.30
2018-12-05T21:39:31.118Z,39.77
2018-12-05T21:42:00.371Z,41.00
2018-12-05T21:44:36.085Z,41.57
2018-12-05T21:47:05.326Z,39.57
2018-12-05T21:49:34.376Z,41.17
2018-12-05T21:52:03.584Z,39.47
2018-12-05T21:54:32.759Z,38.20
2018-12-05T21:57:01.952Z,39.53
2018-12-05T21:59:31.094Z,38.97
2018-12-05T22:02:00.183Z,37.57
2018-12-05T22:04:29.347Z,39.27
2018-12-05T22:06:58.415Z,37.07
2018-12-05T22:09:27.531Z,48.23
2018-12-05T22:11:56.924Z,39.40
2018-12-05T22:14:26.197Z,39.53
2018-12-05T22:16:55.530Z,39.70
2018-12-05T22:19:25.214Z,39.53
2018-12-05T22:21:54.267Z,38.80
2018-12-05T22:24:23.382Z,39.60
2018-12-05T22:26:52.465Z,40.70
2018-12-05T22:29:21.514Z,38.97
2018-12-05T22:31:50.689Z,40.63
2018-12-05T22:34:19.762Z,39.93
2018-12-05T22:36:48.882Z,38.53
2018-12-05T22:39:17.980Z,37.57
2018-12-05T22:41:47.112Z,40.17
2018-12-05T22:44:16.228Z,37.97
2018-12-05T22:46:45.764Z,38.53
2018-12-05T22:49:16.165Z,38.03
2018-12-05T22:51:46.793Z,38.30
2018-12-05T22:54:15.927Z,39.63
2018-12-05T22:56:55.348Z,36.93
2018-12-05T22:59:25.641Z,36.43
2018-12-05T23:01:54.760Z,36.57
2018-12-05T23:04:23.979Z,37.70
2018-12-05T23:06:53.044Z,35.83
2018-12-05T23:09:22.231Z,37.70
2018-12-05T23:11:51.288Z,38.27
2018-12-05T23:14:20.410Z,38.53
2018-12-05T23:16:49.859Z,37.20
2018-12-05T23:19:18.960Z,36.67
2018-12-05T23:21:49.343Z,35.80
2018-12-05T23:24:18.601Z,37.70
2018-12-05T23:26:47.907Z,36.37
2018-12-05T23:29:17.041Z,37.50
2018-12-05T23:31:46.168Z,37.23
2018-12-05T23:34:16.555Z,36.77
2018-12-05T23:36:45.619Z,36.73
2018-12-05T23:39:14.777Z,36.50
2018-12-05T23:41:43.997Z,35.83
2018-12-05T23:44:13.292Z,37.83
2018-12-05T23:46:42.337Z,37.03
2018-12-05T23:49:11.539Z,35.00
2018-12-05T23:51:40.631Z,35.83
2018-12-05T23:54:09.867Z,36.10
2018-12-05T23:56:39.031Z,35.83
2018-12-05T23:59:08.131Z,36.97
